createdAt,value
2023-04-02T00:00:51.937Z,98.65
2023-04-02T00:01:51.640Z,98.65
2023-04-02T00:05:32.565Z,98.96
2023-04-02T00:18:23.429Z,99.62
2023-04-02T00:32:49.313Z,99.56
2023-04-02T00:33:41.369Z,99.35
2023-04-02T00:50:38.493Z,99.71
2023-04-02T00:51:39.775Z,99.55
2023-04-02T00:54:47.875Z,99.99
2023-04-02T00:55:49.466Z,99.86
2023-04-02T01:02:20.430Z,99.04
2023-04-02T01:03:20.208Z,99.34
2023-04-02T01:04:20.002Z,99.34
2023-04-02T01:05:20.258Z,99.99
2023-04-02T01:06:20.007Z,99.14
2023-04-02T01:07:19.993Z,99.39
2023-04-02T01:08:19.944Z,99.14
2023-04-02T01:12:54.883Z,99.13
2023-04-02T01:13:56.262Z,99.29
2023-04-02T01:14:56.208Z,99.90
2023-04-02T01:15:56.124Z,99.60
2023-04-02T01:16:56.219Z,99.49
2023-04-02T01:17:56.055Z,99.18
2023-04-02T01:18:56.424Z,99.08
2023-04-02T01:19:56.012Z,99.29
2023-04-02T01:20:56.110Z,98.88
2023-04-02T01:22:29.064Z,99.29
2023-04-02T01:22:55.996Z,99.43
2023-04-02T01:23:56.029Z,99.80
2023-04-02T01:24:56.173Z,99.29
2023-04-02T01:25:56.185Z,99.08
2023-04-02T01:26:56.108Z,99.49
2023-04-02T01:27:56.209Z,98.92
2023-04-02T01:28:56.076Z,99.23
2023-04-02T01:29:56.075Z,99.18
2023-04-02T01:30:56.377Z,99.18
2023-04-02T01:31:56.026Z,99.29
2023-04-02T01:32:56.082Z,99.18
2023-04-02T01:33:56.011Z,99.23
2023-04-02T01:34:56.032Z,98.88
2023-04-02T01:35:56.620Z,99.02
2023-04-02T01:36:56.075Z,99.33
2023-04-02T01:37:56.072Z,99.18
2023-04-02T01:38:56.054Z,99.02
2023-04-02T01:39:55.972Z,98.50
2023-04-02T01:40:56.047Z,98.82
2023-04-02T01:41:56.387Z,98.82
2023-04-02T01:44:54.159Z,98.97
2023-04-02T01:45:55.602Z,99.13
2023-04-02T01:46:55.545Z,98.82
2023-04-02T01:47:55.434Z,99.13
2023-04-02T01:48:55.352Z,99.02
2023-04-02T01:49:55.424Z,99.02
2023-04-02T01:50:56.133Z,99.13
2023-04-02T01:51:55.377Z,99.48
2023-04-02T01:52:55.450Z,98.82
2023-04-02T01:53:55.360Z,99.43
2023-04-02T01:54:55.717Z,98.86
2023-04-02T01:55:55.358Z,99.02
2023-04-02T01:56:55.434Z,98.76
2023-04-02T01:57:55.477Z,98.86
2023-04-02T01:58:55.388Z,99.17
2023-04-02T01:59:55.391Z,99.07
2023-04-02T02:00:55.356Z,99.17
2023-04-02T02:01:55.355Z,99.27
2023-04-02T02:02:55.386Z,99.07
2023-04-02T02:03:55.583Z,98.97
2023-04-02T02:05:06.605Z,99.11
2023-04-02T02:08:03.399Z,99.22
2023-04-02T02:09:05.035Z,99.22
2023-04-02T02:10:04.770Z,99.32
2023-04-02T02:11:04.591Z,99.07
2023-04-02T02:12:04.614Z,99.43
2023-04-02T02:13:37.710Z,99.52
2023-04-02T02:14:37.540Z,99.63
2023-04-02T02:15:04.967Z,98.91
2023-04-02T02:16:36.995Z,99.43
2023-04-02T02:17:04.637Z,99.43
2023-04-02T02:18:04.646Z,99.52
2023-04-02T02:19:04.712Z,99.99
2023-04-02T02:20:36.588Z,99.32
2023-04-02T02:21:04.626Z,99.43
2023-04-02T02:22:04.583Z,99.26
2023-04-02T02:25:39.957Z,99.84
2023-04-02T02:26:41.202Z,99.43
2023-04-02T02:27:41.136Z,99.26
2023-04-02T02:28:41.163Z,99.32
2023-04-02T02:29:41.132Z,99.32
2023-04-02T02:30:41.126Z,99.47
2023-04-02T02:31:41.240Z,99.22
2023-04-02T02:32:41.383Z,99.22
2023-04-02T02:33:41.008Z,99.06
2023-04-02T02:34:40.966Z,99.26
2023-04-02T02:35:41.110Z,99.16
2023-04-02T02:36:41.337Z,98.96
2023-04-02T02:37:41.103Z,99.26
2023-04-02T02:38:40.974Z,99.26
2023-04-02T02:39:40.907Z,99.16
2023-04-02T02:40:41.028Z,99.06
2023-04-02T02:41:41.044Z,99.47
2023-04-02T02:42:41.021Z,99.26
2023-04-02T02:43:41.083Z,98.96
2023-04-02T02:44:40.955Z,99.06
2023-04-02T02:45:41.337Z,99.16
2023-04-02T02:46:41.085Z,99.26
2023-04-02T02:47:41.066Z,98.96
2023-04-02T02:48:41.021Z,99.10
2023-04-02T02:49:41.005Z,99.21
2023-04-02T02:50:41.080Z,99.16
2023-04-02T02:51:40.951Z,98.85
2023-04-02T02:52:40.879Z,99.10
2023-04-02T02:53:40.950Z,99.52
2023-04-02T02:54:40.945Z,99.47
2023-04-02T02:55:40.823Z,99.21
2023-04-02T02:56:40.984Z,99.52
2023-04-02T03:00:00.991Z,99.47
2023-04-02T03:03:22.408Z,99.05
2023-04-02T03:04:23.621Z,99.21
2023-04-02T03:05:23.554Z,99.41
2023-04-02T03:06:49.569Z,99.52
2023-04-02T03:09:20.728Z,99.46
2023-04-02T03:10:22.428Z,99.72
2023-04-02T03:11:25.073Z,99.41
2023-04-02T03:12:23.492Z,99.31
2023-04-02T03:13:21.972Z,99.31
2023-04-02T03:14:21.953Z,99.52
2023-04-02T03:15:22.067Z,99.35
2023-04-02T03:16:22.057Z,98.90
2023-04-02T03:17:21.905Z,99.05
2023-04-02T03:18:21.997Z,99.41
2023-04-02T03:19:21.909Z,99.21
2023-04-02T03:20:21.818Z,99.46
2023-04-02T03:21:21.889Z,99.46
2023-04-02T03:22:21.941Z,99.46
2023-04-02T03:23:21.990Z,99.66
2023-04-02T03:24:21.914Z,99.56
2023-04-02T03:25:21.907Z,99.15
2023-04-02T03:26:21.864Z,99.56
2023-04-02T03:27:22.228Z,99.46
2023-04-02T03:28:21.825Z,99.56
2023-04-02T03:29:21.977Z,99.62
2023-04-02T03:30:21.897Z,99.35
2023-04-02T03:31:22.025Z,99.15
2023-04-02T03:32:21.810Z,99.25
2023-04-02T03:33:21.935Z,98.94
2023-04-02T03:34:21.900Z,98.84
2023-04-02T03:35:22.322Z,99.25
2023-04-02T03:36:21.843Z,99.05
2023-04-02T03:37:21.780Z,99.10
2023-04-02T03:38:22.234Z,99.05
2023-04-02T03:39:21.862Z,98.74
2023-04-02T03:40:21.748Z,99.25
2023-04-02T03:41:21.785Z,98.74
2023-04-02T03:42:21.747Z,98.22
2023-04-02T03:43:21.842Z,98.63
2023-04-02T03:44:21.828Z,98.63
2023-04-02T03:45:21.768Z,99.05
2023-04-02T03:46:21.849Z,98.84
2023-04-02T03:47:21.812Z,98.84
2023-04-02T03:48:21.726Z,98.74
2023-04-02T03:49:21.824Z,98.94
2023-04-02T03:50:21.729Z,98.68
2023-04-02T03:51:21.737Z,98.74
2023-04-02T03:52:22.065Z,98.53
2023-04-02T03:53:21.669Z,98.84
2023-04-02T03:54:21.811Z,98.88
2023-04-02T03:55:21.800Z,98.78
2023-04-02T03:56:21.594Z,98.84
2023-04-02T03:57:21.621Z,98.84
2023-04-02T03:58:22.200Z,98.99
2023-04-02T03:59:21.599Z,99.05
2023-04-02T04:00:21.612Z,99.09
2023-04-02T04:01:21.603Z,99.15
2023-04-02T04:02:21.766Z,99.09
2023-04-02T04:03:21.691Z,99.25
2023-04-02T04:04:21.584Z,99.30
2023-04-02T04:05:21.655Z,98.99
2023-04-02T04:06:21.623Z,99.19
2023-04-02T04:07:21.910Z,99.19
2023-04-02T04:08:21.633Z,98.88
2023-04-02T04:09:21.626Z,99.24
2023-04-02T04:10:21.668Z,99.40
2023-04-02T04:11:21.707Z,98.99
2023-04-02T04:12:21.579Z,99.30
2023-04-02T04:13:21.599Z,98.93
2023-04-02T04:14:21.564Z,98.99
2023-04-02T04:15:21.646Z,98.83
2023-04-02T04:16:21.540Z,98.47
2023-04-02T04:17:21.468Z,98.78
2023-04-02T04:18:21.602Z,98.62
2023-04-02T04:19:21.447Z,98.72
2023-04-02T04:20:21.520Z,98.37
2023-04-02T04:21:21.706Z,98.41
2023-04-02T04:22:21.563Z,98.52
2023-04-02T04:23:21.625Z,98.00
2023-04-02T04:24:21.458Z,98.37
2023-04-02T04:25:53.449Z,98.31
2023-04-02T04:26:21.530Z,98.72
2023-04-02T04:27:21.520Z,98.27
2023-04-02T04:28:21.528Z,98.27
2023-04-02T04:29:21.470Z,97.89
2023-04-02T04:30:22.474Z,97.89
2023-04-02T04:31:23.930Z,98.16
2023-04-02T04:32:21.441Z,97.69
2023-04-02T04:33:39.625Z,97.79
2023-04-02T04:34:21.392Z,97.69
2023-04-02T04:35:21.419Z,97.69
2023-04-02T04:36:21.385Z,98.00
2023-04-02T04:37:21.421Z,98.00
2023-04-02T04:38:21.417Z,98.00
2023-04-02T04:39:21.528Z,97.96
2023-04-02T04:40:21.446Z,98.10
2023-04-02T04:41:21.359Z,98.52
2023-04-02T04:42:21.711Z,98.27
2023-04-02T04:43:21.710Z,98.16
2023-04-02T04:44:21.410Z,98.16
2023-04-02T04:45:21.405Z,97.85
2023-04-02T04:46:21.549Z,98.37
2023-04-02T04:47:21.364Z,98.00
2023-04-02T04:48:21.509Z,98.10
2023-04-02T04:49:21.324Z,97.64
2023-04-02T04:50:21.282Z,97.79
2023-04-02T04:51:21.267Z,97.33
2023-04-02T04:52:21.353Z,97.69
2023-04-02T04:53:21.315Z,97.69
2023-04-02T04:54:21.693Z,97.79
2023-04-02T04:55:21.279Z,98.31
2023-04-02T04:56:21.316Z,98.16
2023-04-02T04:57:21.314Z,98.31
2023-04-02T04:58:21.305Z,98.31
2023-04-02T04:59:21.609Z,98.31
2023-04-02T05:00:21.252Z,98.31
2023-04-02T05:01:21.282Z,98.47
2023-04-02T05:02:21.232Z,98.10
2023-04-02T05:03:21.235Z,98.21
2023-04-02T05:04:21.298Z,98.10
2023-04-02T05:05:21.354Z,98.31
2023-04-02T05:06:21.203Z,98.41
2023-04-02T05:07:21.126Z,98.31
2023-04-02T05:08:21.181Z,98.00
2023-04-02T05:09:21.276Z,98.21
2023-04-02T05:10:21.157Z,98.00
2023-04-02T05:11:21.130Z,97.89
2023-04-02T05:12:21.156Z,98.00
2023-04-02T05:13:21.099Z,98.21
2023-04-02T05:14:21.087Z,98.52
2023-04-02T05:15:21.542Z,97.79
2023-04-02T05:16:21.171Z,97.94
2023-04-02T05:17:21.243Z,98.25
2023-04-02T05:18:21.103Z,98.77
2023-04-02T05:19:21.214Z,98.31
2023-04-02T05:20:21.109Z,98.35
2023-04-02T05:21:21.156Z,98.46
2023-04-02T05:22:21.139Z,98.35
2023-04-02T05:23:21.093Z,98.35
2023-04-02T05:24:21.080Z,98.35
2023-04-02T05:25:21.097Z,98.15
2023-04-02T05:26:21.414Z,98.56
2023-04-02T05:27:21.078Z,98.77
2023-04-02T05:28:21.074Z,98.40
2023-04-02T05:29:20.946Z,98.35
2023-04-02T05:30:20.936Z,98.25
2023-04-02T05:31:21.617Z,97.99
2023-04-02T05:32:20.990Z,97.88
2023-04-02T05:33:20.979Z,98.19
2023-04-02T05:34:20.969Z,98.71
2023-04-02T05:35:20.985Z,98.19
2023-04-02T05:36:20.953Z,98.35
2023-04-02T05:37:20.940Z,98.30
2023-04-02T05:38:20.972Z,98.40
2023-04-02T05:39:20.970Z,98.77
2023-04-02T05:40:20.989Z,98.35
2023-04-02T05:41:20.943Z,98.56
2023-04-02T05:42:20.977Z,97.99
2023-04-02T05:43:21.272Z,97.53
2023-04-02T05:44:20.979Z,97.57
2023-04-02T05:45:20.942Z,97.74
2023-04-02T05:46:20.947Z,97.36
2023-04-02T05:47:20.949Z,97.67
2023-04-02T05:48:21.523Z,97.74
2023-04-02T05:49:20.904Z,97.53
2023-04-02T05:50:20.955Z,97.63
2023-04-02T05:51:20.931Z,97.36
2023-04-02T05:52:20.954Z,97.06
2023-04-02T05:53:21.020Z,97.57
2023-04-02T05:54:20.820Z,97.67
2023-04-02T05:55:20.806Z,97.67
2023-04-02T05:56:20.882Z,98.09
2023-04-02T05:57:23.158Z,97.57
2023-04-02T05:58:35.310Z,97.06
2023-04-02T05:59:22.865Z,97.88
2023-04-02T06:00:20.752Z,97.57
2023-04-02T06:01:21.021Z,97.47
2023-04-02T06:02:20.915Z,97.57
2023-04-02T06:03:20.851Z,97.99
2023-04-02T06:04:20.824Z,97.99
2023-04-02T06:05:20.837Z,98.09
2023-04-02T06:06:20.807Z,97.99
2023-04-02T06:07:20.817Z,98.09
2023-04-02T06:08:21.115Z,98.30
2023-04-02T06:09:21.084Z,98.09
2023-04-02T06:10:24.234Z,98.30
2023-04-02T06:11:20.810Z,98.30
2023-04-02T06:12:20.831Z,98.19
2023-04-02T06:13:20.747Z,97.78
2023-04-02T06:14:41.871Z,97.57
2023-04-02T06:15:20.677Z,97.36
2023-04-02T06:16:20.690Z,97.16
2023-04-02T06:17:20.740Z,97.47
2023-04-02T06:18:20.641Z,97.57
2023-04-02T06:19:20.766Z,96.64
2023-04-02T06:20:20.856Z,96.85
2023-04-02T06:21:20.702Z,96.54
2023-04-02T06:22:20.969Z,96.64
2023-04-02T06:23:20.747Z,96.64
2023-04-02T06:24:20.661Z,96.64
2023-04-02T06:25:21.205Z,96.54
2023-04-02T06:26:20.720Z,95.92
2023-04-02T06:27:20.712Z,97.26
2023-04-02T06:28:20.688Z,96.12
2023-04-02T06:29:20.640Z,96.02
2023-04-02T06:30:20.601Z,95.92
2023-04-02T06:31:20.741Z,96.48
2023-04-02T06:32:20.557Z,96.17
2023-04-02T06:33:20.579Z,96.44
2023-04-02T06:34:20.662Z,96.69
2023-04-02T06:35:20.577Z,96.69
2023-04-02T06:36:20.636Z,96.64
2023-04-02T06:37:20.488Z,96.33
2023-04-02T06:38:20.677Z,95.96
2023-04-02T06:39:20.708Z,95.96
2023-04-02T06:40:20.677Z,97.20
2023-04-02T06:41:20.750Z,95.65
2023-04-02T06:42:20.590Z,96.01
2023-04-02T06:43:20.703Z,96.42
2023-04-02T06:44:20.565Z,96.62
2023-04-02T06:45:20.583Z,96.79
2023-04-02T06:46:20.648Z,96.83
2023-04-02T06:47:20.857Z,96.05
2023-04-02T06:48:20.569Z,96.31
2023-04-02T06:49:20.464Z,97.14
2023-04-02T06:50:20.536Z,96.31
2023-04-02T06:51:20.511Z,96.94
2023-04-02T06:52:20.669Z,96.94
2023-04-02T06:53:20.801Z,96.52
2023-04-02T06:54:20.410Z,97.04
2023-04-02T06:55:20.505Z,96.31
2023-04-02T06:56:20.419Z,95.84
2023-04-02T06:57:20.604Z,96.21
2023-04-02T06:58:20.545Z,96.83
2023-04-02T06:59:20.485Z,96.62
2023-04-02T07:00:20.507Z,96.21
2023-04-02T07:01:20.809Z,97.25
2023-04-02T07:02:20.530Z,96.26
2023-04-02T07:03:20.465Z,95.90
2023-04-02T07:04:20.519Z,97.14
2023-04-02T07:05:20.420Z,96.01
2023-04-02T07:06:20.540Z,97.35
2023-04-02T07:07:20.412Z,97.00
2023-04-02T07:08:20.368Z,96.83
2023-04-02T07:09:20.342Z,96.83
2023-04-02T07:10:20.330Z,96.11
2023-04-02T07:11:20.978Z,96.73
2023-04-02T07:12:21.539Z,96.15
2023-04-02T07:13:20.374Z,95.70
2023-04-02T07:14:20.418Z,96.52
2023-04-02T07:15:20.342Z,95.18
2023-04-02T07:16:20.352Z,94.91
2023-04-02T07:17:20.342Z,94.70
2023-04-02T07:18:20.640Z,95.95
2023-04-02T07:19:20.342Z,96.15
2023-04-02T07:20:20.376Z,96.05
2023-04-02T07:21:20.304Z,95.80
2023-04-02T07:22:20.350Z,96.11
2023-04-02T07:23:20.416Z,95.80
2023-04-02T07:24:20.338Z,95.70
2023-04-02T07:25:20.348Z,96.42
2023-04-02T07:26:20.201Z,95.80
2023-04-02T07:27:20.162Z,94.87
2023-04-02T07:28:22.000Z,94.97
2023-04-02T07:29:20.141Z,95.59
2023-04-02T07:30:20.145Z,94.97
2023-04-02T07:31:20.184Z,95.14
2023-04-02T07:32:20.140Z,94.41
2023-04-02T07:33:20.218Z,95.07
2023-04-02T07:34:20.106Z,94.35
2023-04-02T07:35:20.557Z,94.60
2023-04-02T07:36:20.256Z,94.91
2023-04-02T07:37:20.155Z,95.22
2023-04-02T07:38:20.188Z,95.70
2023-04-02T07:39:20.107Z,96.26
2023-04-02T07:40:20.112Z,96.31
2023-04-02T07:41:20.176Z,94.45
2023-04-02T07:42:20.193Z,95.01
2023-04-02T07:43:20.143Z,94.45
2023-04-02T07:44:20.109Z,94.87
2023-04-02T07:45:21.097Z,94.87
2023-04-02T07:46:20.484Z,95.07
2023-04-02T07:47:20.176Z,94.97
2023-04-02T07:48:20.209Z,95.07
2023-04-02T07:49:20.101Z,94.45
2023-04-02T07:50:20.015Z,95.07
2023-04-02T07:51:20.105Z,94.76
2023-04-02T07:52:20.145Z,94.56
2023-04-02T07:53:20.224Z,94.62
2023-04-02T07:54:20.004Z,94.24
2023-04-02T07:55:19.989Z,93.99
2023-04-02T07:56:20.044Z,93.62
2023-04-02T07:57:19.983Z,93.99
2023-04-02T07:58:20.031Z,93.52
2023-04-02T07:59:20.272Z,93.99
2023-04-02T08:00:19.987Z,94.45
2023-04-02T08:01:20.044Z,93.68
2023-04-02T08:02:20.306Z,93.10
2023-04-02T08:03:20.118Z,93.52
2023-04-02T08:04:20.014Z,93.41
2023-04-02T08:05:20.128Z,93.52
2023-04-02T08:06:19.992Z,93.48
2023-04-02T08:07:19.973Z,92.96
2023-04-02T08:08:20.005Z,92.65
2023-04-02T08:09:20.103Z,93.27
2023-04-02T08:10:19.944Z,93.58
2023-04-02T08:11:20.080Z,93.68
2023-04-02T08:12:19.986Z,93.16
2023-04-02T08:13:19.943Z,92.81
2023-04-02T08:14:19.836Z,92.96
2023-04-02T08:15:19.955Z,92.55
2023-04-02T08:16:19.837Z,92.96
2023-04-02T08:17:19.820Z,92.13
2023-04-02T08:18:19.791Z,92.65
2023-04-02T08:19:19.927Z,93.37
2023-04-02T08:20:19.760Z,93.27
2023-04-02T08:21:19.782Z,93.73
2023-04-02T08:22:19.869Z,93.06
2023-04-02T08:23:19.863Z,93.27
2023-04-02T08:24:19.980Z,92.55
2023-04-02T08:25:19.887Z,92.44
2023-04-02T08:26:20.022Z,92.65
2023-04-02T08:27:19.935Z,91.51
2023-04-02T08:28:19.906Z,91.82
2023-04-02T08:29:19.934Z,91.97
2023-04-02T08:30:19.901Z,92.65
2023-04-02T08:31:20.144Z,93.27
2023-04-02T08:32:19.873Z,93.06
2023-04-02T08:33:19.795Z,93.16
2023-04-02T08:34:19.942Z,93.79
2023-04-02T08:35:19.765Z,93.68
2023-04-02T08:36:20.734Z,93.43
2023-04-02T08:37:19.670Z,93.58
2023-04-02T08:38:19.898Z,93.06
2023-04-02T08:39:19.685Z,93.48
2023-04-02T08:40:19.845Z,93.23
2023-04-02T08:41:19.798Z,92.85
2023-04-02T08:42:19.865Z,93.95
2023-04-02T08:43:21.204Z,94.16
2023-04-02T08:44:19.996Z,93.37
2023-04-02T08:45:25.107Z,91.72
2023-04-02T08:46:21.713Z,92.30
2023-04-02T08:47:19.710Z,92.71
2023-04-02T08:48:19.694Z,93.48
2023-04-02T08:49:19.736Z,92.61
2023-04-02T08:50:19.688Z,91.72
2023-04-02T08:51:19.736Z,91.88
2023-04-02T08:52:19.797Z,91.93
2023-04-02T08:53:19.659Z,91.26
2023-04-02T08:54:19.688Z,92.40
2023-04-02T08:55:19.618Z,91.57
2023-04-02T08:56:19.684Z,92.34
2023-04-02T08:57:19.942Z,91.30
2023-04-02T08:58:19.624Z,91.20
2023-04-02T08:59:19.848Z,91.30
2023-04-02T09:00:19.489Z,91.26
2023-04-02T09:01:19.537Z,91.93
2023-04-02T09:02:19.529Z,92.24
2023-04-02T09:03:19.779Z,92.09
2023-04-02T09:04:20.513Z,91.93
2023-04-02T09:05:19.497Z,91.99
2023-04-02T09:06:19.774Z,91.67
2023-04-02T09:07:19.789Z,92.19
2023-04-02T09:08:19.565Z,92.19
2023-04-02T09:09:19.619Z,91.99
2023-04-02T09:10:19.574Z,91.57
2023-04-02T09:11:19.608Z,91.22
2023-04-02T09:12:20.216Z,91.11
2023-04-02T09:13:19.549Z,89.92
2023-04-02T09:14:20.024Z,90.84
2023-04-02T09:15:19.599Z,90.91
2023-04-02T09:16:19.622Z,91.53
2023-04-02T09:17:19.853Z,90.50
2023-04-02T09:18:19.614Z,90.91
2023-04-02T09:19:19.592Z,90.60
2023-04-02T09:20:19.882Z,90.39
2023-04-02T09:21:19.531Z,91.01
2023-04-02T09:22:20.072Z,90.70
2023-04-02T09:23:20.099Z,90.39
2023-04-02T09:24:20.125Z,90.84
2023-04-02T09:25:19.983Z,91.22
2023-04-02T09:26:20.034Z,91.07
2023-04-02T09:27:20.100Z,91.32
2023-04-02T09:28:20.037Z,90.29
2023-04-02T09:29:19.994Z,90.08
2023-04-02T09:30:20.444Z,90.91
2023-04-02T09:31:21.104Z,90.12
2023-04-02T09:32:19.803Z,89.61
2023-04-02T09:33:20.045Z,89.92
2023-04-02T09:34:19.939Z,89.40
2023-04-02T09:35:26.090Z,89.61
2023-04-02T09:36:22.040Z,89.61
2023-04-02T09:37:20.116Z,89.81
2023-04-02T09:38:19.922Z,90.12
2023-04-02T09:39:19.729Z,90.02
2023-04-02T09:40:19.650Z,89.29
2023-04-02T09:41:19.770Z,89.40
2023-04-02T09:42:19.901Z,89.81
2023-04-02T09:43:20.163Z,89.40
2023-04-02T09:44:20.027Z,88.61
2023-04-02T09:45:19.990Z,88.71
2023-04-02T09:46:20.491Z,88.26
2023-04-02T09:47:19.983Z,88.78
2023-04-02T09:48:19.775Z,88.88
2023-04-02T09:49:20.061Z,88.67
2023-04-02T09:50:20.011Z,88.67
2023-04-02T09:51:20.105Z,88.26
2023-04-02T09:52:20.076Z,87.54
2023-04-02T09:53:19.730Z,86.71
2023-04-02T09:54:19.942Z,87.85
2023-04-02T09:55:19.779Z,87.74
2023-04-02T09:56:21.000Z,88.36
2023-04-02T09:57:20.318Z,87.95
2023-04-02T09:58:19.754Z,87.95
2023-04-02T09:59:20.080Z,87.54
2023-04-02T10:00:39.677Z,87.54
2023-04-02T10:01:21.640Z,87.54
2023-04-02T10:02:19.874Z,87.54
2023-04-02T10:05:23.500Z,87.64
2023-04-02T10:06:19.343Z,87.85
2023-04-02T10:07:18.164Z,87.23
2023-04-02T10:08:18.078Z,86.50
2023-04-02T10:09:26.563Z,85.36
2023-04-02T10:12:19.831Z,86.91
2023-04-02T10:13:21.597Z,86.40
2023-04-02T10:14:21.549Z,86.91
2023-04-02T10:15:21.114Z,86.60
2023-04-02T10:16:23.887Z,87.54
2023-04-02T10:17:21.689Z,87.81
2023-04-02T10:18:21.447Z,86.36
2023-04-02T10:19:21.672Z,86.36
2023-04-02T10:20:21.316Z,86.15
2023-04-02T10:21:21.571Z,86.88
2023-04-02T10:22:22.707Z,86.57
2023-04-02T10:23:21.215Z,86.15
2023-04-02T10:24:21.271Z,85.84
2023-04-02T10:25:21.184Z,85.88
2023-04-02T10:26:21.689Z,85.99
2023-04-02T10:30:35.132Z,85.99
2023-04-02T10:31:36.334Z,86.29
2023-04-02T10:32:36.346Z,87.18
2023-04-02T10:33:36.420Z,87.85
2023-04-02T10:34:36.193Z,86.36
2023-04-02T10:35:36.300Z,86.05
2023-04-02T10:36:36.010Z,85.94
2023-04-02T10:37:36.049Z,85.84
2023-04-02T10:38:36.258Z,85.94
2023-04-02T10:39:36.456Z,85.84
2023-04-02T10:40:36.105Z,85.84
2023-04-02T10:41:36.592Z,85.63
2023-04-02T10:48:58.943Z,86.01
2023-04-02T10:53:03.722Z,84.56
2023-04-02T10:54:06.625Z,83.90
2023-04-02T10:58:30.725Z,84.42
2023-04-02T11:02:01.546Z,84.42
2023-04-02T11:11:16.752Z,83.70
2023-04-02T11:16:31.491Z,83.49
2023-04-02T11:23:08.791Z,81.77
2023-04-02T11:32:14.706Z,82.08
2023-04-02T11:37:41.105Z,81.56
2023-04-02T11:48:52.048Z,80.53
2023-04-02T11:52:57.328Z,80.77
2023-04-02T11:53:58.610Z,80.63
2023-04-02T11:57:50.860Z,79.80
2023-04-02T12:05:35.493Z,80.18
2023-04-02T12:06:37.243Z,80.08
2023-04-02T12:07:36.601Z,79.36
2023-04-02T12:08:47.293Z,79.87
2023-04-02T12:10:07.269Z,80.29
2023-04-02T12:10:37.031Z,79.77
2023-04-02T12:11:36.916Z,79.46
2023-04-02T12:12:36.709Z,79.36
2023-04-02T12:13:36.901Z,79.25
2023-04-02T12:14:36.874Z,78.94
2023-04-02T12:15:36.956Z,79.56
2023-04-02T12:16:37.064Z,80.18
2023-04-02T12:17:37.006Z,80.60
2023-04-02T12:18:36.891Z,78.63
2023-04-02T12:19:36.832Z,78.53
2023-04-02T12:20:37.060Z,78.63
2023-04-02T12:21:37.374Z,77.91
2023-04-02T12:22:36.770Z,77.43
2023-04-02T12:23:36.642Z,76.77
2023-04-02T12:24:36.580Z,77.39
2023-04-02T12:25:37.229Z,76.36
2023-04-02T12:26:36.636Z,75.84
2023-04-02T12:31:21.365Z,73.95
2023-04-02T12:32:22.967Z,73.74
2023-04-02T12:33:23.224Z,75.49
2023-04-02T12:34:23.088Z,75.70
2023-04-02T12:35:23.933Z,76.18
2023-04-02T12:36:23.313Z,75.22
2023-04-02T12:37:23.109Z,75.74
2023-04-02T12:38:23.442Z,75.09
2023-04-02T12:39:23.932Z,74.05
2023-04-02T12:40:23.173Z,71.78
2023-04-02T12:41:22.963Z,72.61
2023-04-02T12:42:22.986Z,72.67
2023-04-02T12:43:22.929Z,72.99
2023-04-02T12:44:24.069Z,72.44
2023-04-02T12:45:22.845Z,73.36
2023-04-02T12:46:23.227Z,71.72
2023-04-02T12:47:23.312Z,71.75
2023-04-02T12:48:23.146Z,71.82
2023-04-02T12:49:23.061Z,71.10
2023-04-02T12:50:23.196Z,69.55
2023-04-02T12:51:23.238Z,71.10
2023-04-02T12:52:23.068Z,69.96
2023-04-02T12:53:23.011Z,69.86
2023-04-02T12:54:23.120Z,69.96
2023-04-02T12:55:22.939Z,71.41
2023-04-02T12:56:22.662Z,72.09
2023-04-02T12:57:23.213Z,71.00
2023-04-02T12:58:23.402Z,69.89
2023-04-02T13:04:15.751Z,71.13
2023-04-02T13:07:58.412Z,72.06
2023-04-02T13:17:09.831Z,68.93
2023-04-02T13:18:53.271Z,67.29
2023-04-02T13:19:11.101Z,68.73
2023-04-02T13:22:52.282Z,68.59
2023-04-02T13:26:13.611Z,69.21
2023-04-02T13:30:32.026Z,68.80
2023-04-02T13:36:26.806Z,67.81
2023-04-02T13:47:56.257Z,66.19
2023-04-02T13:48:56.817Z,66.58
2023-04-02T13:49:57.431Z,65.95
2023-04-02T13:53:49.600Z,68.56
2023-04-02T13:56:59.183Z,66.12
2023-04-02T14:02:13.321Z,65.92
2023-04-02T14:05:20.307Z,65.34
2023-04-02T14:09:46.731Z,63.22
2023-04-02T14:17:43.695Z,65.08
2023-04-02T14:18:43.698Z,66.20
2023-04-02T14:19:43.320Z,65.00
2023-04-02T14:30:50.626Z,64.79
2023-04-02T14:31:51.882Z,65.00
2023-04-02T14:32:52.174Z,65.08
2023-04-02T14:33:52.073Z,63.74
2023-04-02T14:34:51.990Z,65.00
2023-04-02T14:35:51.887Z,64.79
2023-04-02T14:36:52.237Z,65.62
2023-04-02T14:40:57.880Z,66.12
2023-04-02T14:41:59.439Z,66.02
2023-04-02T14:42:59.745Z,66.43
2023-04-02T14:48:53.908Z,68.39
2023-04-02T14:49:55.470Z,67.36
2023-04-02T14:50:55.529Z,67.84
2023-04-02T14:51:55.453Z,68.49
2023-04-02T14:52:55.257Z,68.66
2023-04-02T14:53:55.391Z,66.94
2023-04-02T14:54:55.100Z,68.35
2023-04-02T14:55:55.546Z,68.56
2023-04-02T14:56:55.337Z,68.18
2023-04-02T14:57:55.421Z,68.18
2023-04-02T14:58:55.415Z,66.36
2023-04-02T14:59:55.841Z,66.36
2023-04-02T15:00:55.827Z,65.53
2023-04-02T15:01:55.297Z,66.84
2023-04-02T15:02:55.549Z,65.50
2023-04-02T15:03:55.311Z,65.89
2023-04-02T15:04:55.463Z,65.41
2023-04-02T15:05:56.598Z,65.08
2023-04-02T15:06:55.190Z,65.05
2023-04-02T15:07:54.905Z,63.60
2023-04-02T15:09:08.354Z,63.22
2023-04-02T15:09:57.448Z,63.32
2023-04-02T15:10:55.195Z,63.87
2023-04-02T15:11:55.034Z,63.87
2023-04-02T15:12:54.656Z,64.11
2023-04-02T15:13:55.055Z,64.72
2023-04-02T15:14:54.679Z,64.83
2023-04-02T15:15:55.582Z,65.44
2023-04-02T15:16:55.003Z,64.93
2023-04-02T15:17:55.155Z,65.13
2023-04-02T15:18:55.156Z,64.96
2023-04-02T15:21:57.121Z,65.74
2023-04-02T15:22:55.599Z,64.95
2023-04-02T15:23:54.435Z,64.98
2023-04-02T15:24:54.600Z,65.70
2023-04-02T15:25:54.848Z,65.28
2023-04-02T15:26:54.805Z,66.31
2023-04-02T15:27:54.459Z,67.35
2023-04-02T15:28:55.706Z,66.52
2023-04-02T15:29:54.565Z,66.45
2023-04-02T15:30:54.553Z,66.31
2023-04-02T15:31:54.728Z,67.24
2023-04-02T15:32:54.345Z,66.35
2023-04-02T15:33:54.353Z,67.10
2023-04-02T15:34:54.717Z,67.45
2023-04-02T15:35:54.606Z,68.62
2023-04-02T15:36:54.228Z,67.90
2023-04-02T15:37:54.137Z,68.72
2023-04-02T15:38:54.359Z,68.69
2023-04-02T15:39:54.738Z,68.38
2023-04-02T15:40:54.441Z,68.48
2023-04-02T15:41:54.548Z,68.07
2023-04-02T15:42:54.762Z,67.97
2023-04-02T15:43:54.681Z,68.38
2023-04-02T15:44:54.502Z,68.27
2023-04-02T15:45:54.250Z,68.55
2023-04-02T15:46:53.990Z,67.83
2023-04-02T15:47:54.370Z,67.76
2023-04-02T15:48:54.460Z,68.07
2023-04-02T15:49:53.908Z,68.45
2023-04-02T15:50:53.983Z,68.66
2023-04-02T15:51:53.949Z,67.86
2023-04-02T15:52:53.912Z,68.38
2023-04-02T15:53:54.046Z,69.10
2023-04-02T15:54:54.292Z,68.38
2023-04-02T15:55:54.438Z,67.86
2023-04-02T15:56:54.071Z,67.97
2023-04-02T15:57:54.282Z,68.69
2023-04-02T15:58:54.750Z,69.72
2023-04-02T15:59:54.111Z,69.72
2023-04-02T16:00:54.331Z,69.10
2023-04-02T16:01:54.438Z,69.10
2023-04-02T16:02:54.547Z,69.48
2023-04-02T16:03:53.820Z,69.59
2023-04-02T16:04:54.337Z,69.69
2023-04-02T16:05:54.114Z,69.62
2023-04-02T16:06:54.010Z,69.93
2023-04-02T16:07:54.342Z,70.86
2023-04-02T16:08:54.309Z,70.92
2023-04-02T16:09:54.345Z,70.41
2023-04-02T16:10:55.275Z,71.55
2023-04-02T16:11:53.859Z,70.54
2023-04-02T16:12:54.448Z,70.34
2023-04-02T16:13:54.222Z,70.86
2023-04-02T16:14:54.192Z,71.26
2023-04-02T16:15:54.437Z,71.58
2023-04-02T16:16:54.427Z,71.68
2023-04-02T16:17:54.444Z,72.09
2023-04-02T16:18:54.253Z,71.99
2023-04-02T16:19:54.292Z,71.89
2023-04-02T16:20:55.209Z,72.40
2023-04-02T16:21:54.247Z,71.99
2023-04-02T16:23:00.636Z,71.99
2023-04-02T16:23:56.300Z,71.89
2023-04-02T16:24:54.577Z,71.20
2023-04-02T16:25:54.804Z,71.68
2023-04-02T16:26:54.278Z,71.81
2023-04-02T16:27:55.359Z,71.16
2023-04-02T16:28:54.341Z,71.20
2023-04-02T16:29:54.973Z,70.47
2023-04-02T16:30:55.720Z,69.03
2023-04-02T16:31:53.966Z,70.27
2023-04-02T16:32:53.593Z,71.58
2023-04-02T16:33:53.667Z,71.78
2023-04-02T16:34:55.045Z,72.02
2023-04-02T16:35:54.152Z,72.19
2023-04-02T16:36:54.197Z,71.89
2023-04-02T16:37:53.926Z,71.09
2023-04-02T18:48:50.111Z,76.50
2023-04-02T18:49:49.903Z,77.15
2023-04-02T18:50:49.742Z,77.53
2023-04-02T18:51:51.295Z,77.01
2023-04-02T18:52:51.058Z,76.91